sensor_id;sensor_type;location;lat;lon;timestamp;P1;durP1;ratioP1;P2;durP2;ratioP2
6290;SDS011;3178;48.730;8.990;2022-12-19T00:01:59;72.97;;;29.07;;
6290;SDS011;3178;48.730;8.990;2022-12-19T00:04:24;67.20;;;29.13;;
6290;SDS011;3178;48.730;8.990;2022-12-19T00:06:50;68.60;;;29.87;;
6290;SDS011;3178;48.730;8.990;2022-12-19T00:09:15;73.80;;;30.87;;
6290;SDS011;3178;48.730;8.990;2022-12-19T00:11:41;70.53;;;30.60;;
6290;SDS011;3178;48.730;8.990;2022-12-19T00:14:08;72.40;;;30.70;;
6290;SDS011;3178;48.730;8.990;2022-12-19T00:16:35;66.57;;;30.63;;
6290;SDS011;3178;48.730;8.990;2022-12-19T00:19:02;71.60;;;30.27;;
6290;SDS011;3178;48.730;8.990;2022-12-19T00:21:28;69.70;;;30.97;;
6290;SDS011;3178;48.730;8.990;2022-12-19T00:23:56;56.27;;;26.63;;
6290;SDS011;3178;48.730;8.990;2022-12-19T00:26:22;71.60;;;30.60;;
6290;SDS011;3178;48.730;8.990;2022-12-19T00:29:03;60.60;;;28.60;;
6290;SDS011;3178;48.730;8.990;2022-12-19T00:31:33;67.07;;;31.40;;
6290;SDS011;3178;48.730;8.990;2022-12-19T00:33:59;73.27;;;31.17;;
6290;SDS011;3178;48.730;8.990;2022-12-19T00:36:29;67.57;;;30.43;;
6290;SDS011;3178;48.730;8.990;2022-12-19T00:38:57;66.43;;;30.83;;
6290;SDS011;3178;48.730;8.990;2022-12-19T00:41:27;61.20;;;30.40;;
6290;SDS011;3178;48.730;8.990;2022-12-19T00:43:55;67.47;;;31.50;;
6290;SDS011;3178;48.730;8.990;2022-12-19T00:46:22;61.37;;;28.33;;
6290;SDS011;3178;48.730;8.990;2022-12-19T00:48:48;70.23;;;32.00;;
6290;SDS011;3178;48.730;8.990;2022-12-19T00:51:17;58.00;;;28.10;;
6290;SDS011;3178;48.730;8.990;2022-12-19T00:53:46;59.00;;;27.77;;
6290;SDS011;3178;48.730;8.990;2022-12-19T00:56:13;65.80;;;29.73;;
6290;SDS011;3178;48.730;8.990;2022-12-19T00:58:41;61.83;;;29.60;;
6290;SDS011;3178;48.730;8.990;2022-12-19T01:01:07;65.60;;;28.87;;
6290;SDS011;3178;48.730;8.990;2022-12-19T01:03:36;61.87;;;27.30;;
6290;SDS011;3178;48.730;8.990;2022-12-19T01:06:01;61.60;;;28.77;;
6290;SDS011;3178;48.730;8.990;2022-12-19T01:08:27;56.50;;;28.63;;
6290;SDS011;3178;48.730;8.990;2022-12-19T01:10:53;59.93;;;29.47;;
6290;SDS011;3178;48.730;8.990;2022-12-19T01:13:19;64.53;;;29.93;;
6290;SDS011;3178;48.730;8.990;2022-12-19T01:15:45;72.20;;;32.97;;
6290;SDS011;3178;48.730;8.990;2022-12-19T01:18:10;67.40;;;30.63;;
6290;SDS011;3178;48.730;8.990;2022-12-19T01:20:37;56.93;;;27.83;;
6290;SDS011;3178;48.730;8.990;2022-12-19T01:23:04;64.20;;;30.20;;
6290;SDS011;3178;48.730;8.990;2022-12-19T01:25:31;54.23;;;27.63;;
6290;SDS011;3178;48.730;8.990;2022-12-19T01:27:57;67.77;;;31.70;;
6290;SDS011;3178;48.730;8.990;2022-12-19T01:30:23;62.50;;;30.30;;
6290;SDS011;3178;48.730;8.990;2022-12-19T01:32:49;63.50;;;28.63;;
6290;SDS011;3178;48.730;8.990;2022-12-19T01:35:14;63.10;;;28.13;;
6290;SDS011;3178;48.730;8.990;2022-12-19T01:37:40;64.43;;;28.60;;
6290;SDS011;3178;48.730;8.990;2022-12-19T01:40:06;62.13;;;28.10;;
6290;SDS011;3178;48.730;8.990;2022-12-19T01:42:33;59.40;;;28.70;;
6290;SDS011;3178;48.730;8.990;2022-12-19T01:47:44;61.80;;;29.67;;
6290;SDS011;3178;48.730;8.990;2022-12-19T01:50:17;50.27;;;26.10;;
6290;SDS011;3178;48.730;8.990;2022-12-19T01:52:56;61.80;;;29.10;;
6290;SDS011;3178;48.730;8.990;2022-12-19T01:55:22;57.83;;;27.63;;
6290;SDS011;3178;48.730;8.990;2022-12-19T01:57:48;61.17;;;28.27;;
6290;SDS011;3178;48.730;8.990;2022-12-19T02:00:13;64.03;;;29.00;;
6290;SDS011;3178;48.730;8.990;2022-12-19T02:02:40;51.70;;;25.47;;
6290;SDS011;3178;48.730;8.990;2022-12-19T02:05:10;59.87;;;28.20;;
6290;SDS011;3178;48.730;8.990;2022-12-19T02:07:35;52.73;;;26.50;;
6290;SDS011;3178;48.730;8.990;2022-12-19T02:10:02;60.53;;;28.47;;
6290;SDS011;3178;48.730;8.990;2022-12-19T02:12:29;62.87;;;30.17;;
6290;SDS011;3178;48.730;8.990;2022-12-19T02:14:57;62.90;;;29.07;;
6290;SDS011;3178;48.730;8.990;2022-12-19T02:28:46;60.17;;;28.00;;
6290;SDS011;3178;48.730;8.990;2022-12-19T02:34:24;60.50;;;29.03;;
6290;SDS011;3178;48.730;8.990;2022-12-19T02:37:13;73.90;;;30.60;;
6290;SDS011;3178;48.730;8.990;2022-12-19T02:42:31;63.00;;;31.67;;
6290;SDS011;3178;48.730;8.990;2022-12-19T02:45:03;61.00;;;29.60;;
6290;SDS011;3178;48.730;8.990;2022-12-19T02:47:32;70.23;;;30.23;;
6290;SDS011;3178;48.730;8.990;2022-12-19T02:49:59;58.03;;;28.13;;
6290;SDS011;3178;48.730;8.990;2022-12-19T02:54:51;72.63;;;30.90;;
6290;SDS011;3178;48.730;8.990;2022-12-19T03:00:01;61.87;;;29.20;;
6290;SDS011;3178;48.730;8.990;2022-12-19T03:05:13;64.53;;;29.37;;
6290;SDS011;3178;48.730;8.990;2022-12-19T03:07:52;63.63;;;28.37;;
6290;SDS011;3178;48.730;8.990;2022-12-19T03:13:05;62.73;;;27.77;;
6290;SDS011;3178;48.730;8.990;2022-12-19T03:15:37;65.97;;;28.17;;
6290;SDS011;3178;48.730;8.990;2022-12-19T03:18:03;63.87;;;28.33;;
6290;SDS011;3178;48.730;8.990;2022-12-19T03:20:40;73.63;;;30.40;;
6290;SDS011;3178;48.730;8.990;2022-12-19T03:23:08;60.43;;;28.10;;
6290;SDS011;3178;48.730;8.990;2022-12-19T03:25:34;60.73;;;28.40;;
6290;SDS011;3178;48.730;8.990;2022-12-19T03:28:00;61.60;;;27.13;;
6290;SDS011;3178;48.730;8.990;2022-12-19T03:30:31;64.80;;;28.27;;
6290;SDS011;3178;48.730;8.990;2022-12-19T03:32:58;57.67;;;28.17;;
6290;SDS011;3178;48.730;8.990;2022-12-19T03:35:26;59.90;;;28.57;;
6290;SDS011;3178;48.730;8.990;2022-12-19T03:37:57;66.37;;;28.57;;
6290;SDS011;3178;48.730;8.990;2022-12-19T03:40:26;65.17;;;28.50;;
6290;SDS011;3178;48.730;8.990;2022-12-19T03:43:01;65.07;;;28.97;;
6290;SDS011;3178;48.730;8.990;2022-12-19T03:51:21;61.30;;;27.80;;
6290;SDS011;3178;48.730;8.990;2022-12-19T03:54:18;66.20;;;28.70;;
6290;SDS011;3178;48.730;8.990;2022-12-19T03:57:00;60.63;;;27.53;;
6290;SDS011;3178;48.730;8.990;2022-12-19T04:02:12;57.87;;;27.13;;
6290;SDS011;3178;48.730;8.990;2022-12-19T04:04:41;52.00;;;27.30;;
6290;SDS011;3178;48.730;8.990;2022-12-19T04:07:10;59.90;;;26.07;;
6290;SDS011;3178;48.730;8.990;2022-12-19T04:09:37;53.70;;;26.37;;
6290;SDS011;3178;48.730;8.990;2022-12-19T04:12:07;53.10;;;24.63;;
6290;SDS011;3178;48.730;8.990;2022-12-19T04:14:37;61.53;;;26.67;;
6290;SDS011;3178;48.730;8.990;2022-12-19T04:17:10;54.93;;;26.10;;
6290;SDS011;3178;48.730;8.990;2022-12-19T04:22:34;63.87;;;27.07;;
6290;SDS011;3178;48.730;8.990;2022-12-19T04:25:19;53.67;;;23.50;;
6290;SDS011;3178;48.730;8.990;2022-12-19T04:27:50;55.40;;;25.77;;
6290;SDS011;3178;48.730;8.990;2022-12-19T04:30:19;50.87;;;24.10;;
6290;SDS011;3178;48.730;8.990;2022-12-19T04:32:45;48.17;;;24.10;;
6290;SDS011;3178;48.730;8.990;2022-12-19T04:35:12;55.73;;;24.40;;
6290;SDS011;3178;48.730;8.990;2022-12-19T04:37:38;55.80;;;25.63;;
6290;SDS011;3178;48.730;8.990;2022-12-19T04:40:04;55.53;;;27.27;;
6290;SDS011;3178;48.730;8.990;2022-12-19T04:42:32;55.30;;;25.97;;
6290;SDS011;3178;48.730;8.990;2022-12-19T04:44:58;61.63;;;28.93;;
6290;SDS011;3178;48.730;8.990;2022-12-19T04:47:23;53.13;;;24.90;;
6290;SDS011;3178;48.730;8.990;2022-12-19T04:49:49;52.33;;;25.07;;
6290;SDS011;3178;48.730;8.990;2022-12-19T04:52:15;53.33;;;26.70;;
6290;SDS011;3178;48.730;8.990;2022-12-19T04:54:40;59.33;;;26.97;;
6290;SDS011;3178;48.730;8.990;2022-12-19T04:57:06;58.30;;;27.40;;
6290;SDS011;3178;48.730;8.990;2022-12-19T04:59:32;60.07;;;27.90;;
6290;SDS011;3178;48.730;8.990;2022-12-19T05:01:57;54.40;;;26.30;;
6290;SDS011;3178;48.730;8.990;2022-12-19T05:04:23;56.53;;;26.03;;
6290;SDS011;3178;48.730;8.990;2022-12-19T05:06:48;61.10;;;27.90;;
6290;SDS011;3178;48.730;8.990;2022-12-19T05:09:14;54.20;;;24.80;;
6290;SDS011;3178;48.730;8.990;2022-12-19T05:11:40;55.03;;;26.33;;
6290;SDS011;3178;48.730;8.990;2022-12-19T05:14:05;52.07;;;25.80;;
6290;SDS011;3178;48.730;8.990;2022-12-19T05:16:31;55.33;;;25.77;;
6290;SDS011;3178;48.730;8.990;2022-12-19T05:18:56;59.30;;;28.30;;
6290;SDS011;3178;48.730;8.990;2022-12-19T05:21:22;59.07;;;27.70;;
6290;SDS011;3178;48.730;8.990;2022-12-19T05:23:48;56.80;;;26.27;;
6290;SDS011;3178;48.730;8.990;2022-12-19T05:26:14;61.97;;;28.27;;
6290;SDS011;3178;48.730;8.990;2022-12-19T05:28:40;56.73;;;26.60;;
6290;SDS011;3178;48.730;8.990;2022-12-19T05:31:13;57.03;;;26.90;;
6290;SDS011;3178;48.730;8.990;2022-12-19T05:33:40;53.13;;;25.37;;
6290;SDS011;3178;48.730;8.990;2022-12-19T05:36:07;60.53;;;27.90;;
6290;SDS011;3178;48.730;8.990;2022-12-19T05:38:33;57.10;;;26.97;;
6290;SDS011;3178;48.730;8.990;2022-12-19T05:40:59;66.97;;;28.07;;
6290;SDS011;3178;48.730;8.990;2022-12-19T05:43:33;62.90;;;25.93;;
6290;SDS011;3178;48.730;8.990;2022-12-19T05:45:59;59.67;;;26.37;;
6290;SDS011;3178;48.730;8.990;2022-12-19T05:48:25;56.20;;;26.67;;
6290;SDS011;3178;48.730;8.990;2022-12-19T05:50:50;60.80;;;28.70;;
6290;SDS011;3178;48.730;8.990;2022-12-19T05:53:16;59.10;;;29.70;;
6290;SDS011;3178;48.730;8.990;2022-12-19T05:55:42;69.73;;;27.93;;
6290;SDS011;3178;48.730;8.990;2022-12-19T05:58:08;65.57;;;27.27;;
6290;SDS011;3178;48.730;8.990;2022-12-19T06:00:33;82.87;;;28.97;;
6290;SDS011;3178;48.730;8.990;2022-12-19T06:02:59;60.73;;;27.27;;
6290;SDS011;3178;48.730;8.990;2022-12-19T06:05:24;60.20;;;27.37;;
6290;SDS011;3178;48.730;8.990;2022-12-19T06:07:50;63.67;;;27.93;;
6290;SDS011;3178;48.730;8.990;2022-12-19T06:10:15;63.37;;;26.93;;
6290;SDS011;3178;48.730;8.990;2022-12-19T06:12:41;57.10;;;27.40;;
6290;SDS011;3178;48.730;8.990;2022-12-19T06:15:07;56.80;;;25.00;;
6290;SDS011;3178;48.730;8.990;2022-12-19T06:17:33;58.80;;;26.30;;
6290;SDS011;3178;48.730;8.990;2022-12-19T06:19:58;61.97;;;27.80;;
6290;SDS011;3178;48.730;8.990;2022-12-19T06:22:24;60.20;;;27.33;;
6290;SDS011;3178;48.730;8.990;2022-12-19T06:24:49;59.40;;;28.63;;
6290;SDS011;3178;48.730;8.990;2022-12-19T06:27:15;65.90;;;28.50;;
6290;SDS011;3178;48.730;8.990;2022-12-19T06:29:40;69.27;;;28.60;;
6290;SDS011;3178;48.730;8.990;2022-12-19T06:32:06;58.63;;;28.23;;
6290;SDS011;3178;48.730;8.990;2022-12-19T06:34:31;56.87;;;26.80;;
6290;SDS011;3178;48.730;8.990;2022-12-19T06:36:57;59.00;;;27.03;;
6290;SDS011;3178;48.730;8.990;2022-12-19T06:39:22;61.23;;;28.33;;
6290;SDS011;3178;48.730;8.990;2022-12-19T06:41:48;58.27;;;27.00;;
6290;SDS011;3178;48.730;8.990;2022-12-19T06:44:32;68.83;;;27.80;;
6290;SDS011;3178;48.730;8.990;2022-12-19T06:46:58;64.93;;;31.17;;
6290;SDS011;3178;48.730;8.990;2022-12-19T06:49:23;58.23;;;27.83;;
6290;SDS011;3178;48.730;8.990;2022-12-19T06:51:49;62.30;;;28.77;;
6290;SDS011;3178;48.730;8.990;2022-12-19T06:54:15;71.50;;;30.83;;
6290;SDS011;3178;48.730;8.990;2022-12-19T06:56:41;61.30;;;29.30;;
6290;SDS011;3178;48.730;8.990;2022-12-19T06:59:09;57.10;;;29.33;;
6290;SDS011;3178;48.730;8.990;2022-12-19T07:04:26;57.37;;;27.17;;
6290;SDS011;3178;48.730;8.990;2022-12-19T07:06:54;58.73;;;27.43;;
6290;SDS011;3178;48.730;8.990;2022-12-19T07:09:20;58.93;;;27.43;;
6290;SDS011;3178;48.730;8.990;2022-12-19T07:11:46;58.73;;;25.20;;
6290;SDS011;3178;48.730;8.990;2022-12-19T07:14:12;64.17;;;29.80;;
6290;SDS011;3178;48.730;8.990;2022-12-19T07:16:37;55.50;;;26.30;;
6290;SDS011;3178;48.730;8.990;2022-12-19T07:19:04;58.80;;;27.33;;
6290;SDS011;3178;48.730;8.990;2022-12-19T07:21:30;53.50;;;27.80;;
6290;SDS011;3178;48.730;8.990;2022-12-19T07:23:56;60.50;;;27.03;;
6290;SDS011;3178;48.730;8.990;2022-12-19T07:26:23;59.83;;;28.33;;
6290;SDS011;3178;48.730;8.990;2022-12-19T07:28:49;60.73;;;27.47;;
6290;SDS011;3178;48.730;8.990;2022-12-19T07:31:14;54.17;;;25.43;;
6290;SDS011;3178;48.730;8.990;2022-12-19T07:33:40;57.93;;;26.30;;
6290;SDS011;3178;48.730;8.990;2022-12-19T07:36:05;57.53;;;26.13;;
6290;SDS011;3178;48.730;8.990;2022-12-19T07:38:32;54.43;;;25.50;;
6290;SDS011;3178;48.730;8.990;2022-12-19T07:40:59;49.47;;;25.73;;
6290;SDS011;3178;48.730;8.990;2022-12-19T07:43:25;52.27;;;24.93;;
6290;SDS011;3178;48.730;8.990;2022-12-19T07:45:54;54.90;;;25.00;;
6290;SDS011;3178;48.730;8.990;2022-12-19T07:48:20;69.27;;;24.23;;
6290;SDS011;3178;48.730;8.990;2022-12-19T07:50:46;47.60;;;23.53;;
6290;SDS011;3178;48.730;8.990;2022-12-19T07:53:13;49.73;;;24.93;;
6290;SDS011;3178;48.730;8.990;2022-12-19T07:55:39;49.57;;;24.57;;
6290;SDS011;3178;48.730;8.990;2022-12-19T07:58:04;47.13;;;23.60;;
6290;SDS011;3178;48.730;8.990;2022-12-19T08:00:30;42.67;;;24.03;;
6290;SDS011;3178;48.730;8.990;2022-12-19T08:02:57;52.47;;;22.60;;
6290;SDS011;3178;48.730;8.990;2022-12-19T08:05:23;61.07;;;26.33;;
6290;SDS011;3178;48.730;8.990;2022-12-19T08:07:48;55.17;;;25.93;;
6290;SDS011;3178;48.730;8.990;2022-12-19T08:10:14;54.60;;;23.77;;
6290;SDS011;3178;48.730;8.990;2022-12-19T08:12:40;48.13;;;22.90;;
6290;SDS011;3178;48.730;8.990;2022-12-19T08:15:06;52.60;;;23.40;;
6290;SDS011;3178;48.730;8.990;2022-12-19T08:17:32;45.23;;;21.90;;
6290;SDS011;3178;48.730;8.990;2022-12-19T08:19:57;44.53;;;21.20;;
6290;SDS011;3178;48.730;8.990;2022-12-19T08:22:23;52.83;;;23.10;;
6290;SDS011;3178;48.730;8.990;2022-12-19T08:24:48;42.23;;;21.60;;
6290;SDS011;3178;48.730;8.990;2022-12-19T08:27:14;57.50;;;22.60;;
6290;SDS011;3178;48.730;8.990;2022-12-19T08:29:41;49.20;;;22.77;;
6290;SDS011;3178;48.730;8.990;2022-12-19T08:32:06;43.67;;;21.33;;
6290;SDS011;3178;48.730;8.990;2022-12-19T08:34:32;40.23;;;22.37;;
6290;SDS011;3178;48.730;8.990;2022-12-19T08:36:57;43.00;;;21.77;;
6290;SDS011;3178;48.730;8.990;2022-12-19T08:39:23;47.50;;;20.93;;
6290;SDS011;3178;48.730;8.990;2022-12-19T08:41:48;46.07;;;21.20;;
6290;SDS011;3178;48.730;8.990;2022-12-19T08:44:14;48.43;;;21.17;;
6290;SDS011;3178;48.730;8.990;2022-12-19T08:46:40;44.30;;;22.40;;
6290;SDS011;3178;48.730;8.990;2022-12-19T08:49:05;38.17;;;20.50;;
6290;SDS011;3178;48.730;8.990;2022-12-19T08:51:31;46.23;;;22.07;;
6290;SDS011;3178;48.730;8.990;2022-12-19T08:53:56;39.70;;;21.93;;
6290;SDS011;3178;48.730;8.990;2022-12-19T08:56:22;44.10;;;20.30;;
6290;SDS011;3178;48.730;8.990;2022-12-19T08:58:49;48.70;;;21.80;;
6290;SDS011;3178;48.730;8.990;2022-12-19T09:01:16;43.83;;;20.33;;
6290;SDS011;3178;48.730;8.990;2022-12-19T09:03:43;46.80;;;21.90;;
6290;SDS011;3178;48.730;8.990;2022-12-19T09:06:10;44.10;;;21.93;;
6290;SDS011;3178;48.730;8.990;2022-12-19T09:08:37;42.93;;;21.87;;
6290;SDS011;3178;48.730;8.990;2022-12-19T09:11:04;49.67;;;21.10;;
6290;SDS011;3178;48.730;8.990;2022-12-19T09:13:34;46.77;;;21.43;;
6290;SDS011;3178;48.730;8.990;2022-12-19T09:16:01;34.50;;;19.53;;
6290;SDS011;3178;48.730;8.990;2022-12-19T09:18:37;36.93;;;18.53;;
6290;SDS011;3178;48.730;8.990;2022-12-19T09:21:03;38.97;;;17.23;;
6290;SDS011;3178;48.730;8.990;2022-12-19T09:23:30;33.30;;;17.40;;
6290;SDS011;3178;48.730;8.990;2022-12-19T09:25:56;26.07;;;15.80;;
6290;SDS011;3178;48.730;8.990;2022-12-19T09:28:26;34.87;;;18.60;;
6290;SDS011;3178;48.730;8.990;2022-12-19T09:30:58;32.07;;;17.20;;
6290;SDS011;3178;48.730;8.990;2022-12-19T09:33:25;31.93;;;17.20;;
6290;SDS011;3178;48.730;8.990;2022-12-19T09:35:52;32.63;;;17.20;;
6290;SDS011;3178;48.730;8.990;2022-12-19T09:38:19;30.60;;;17.07;;
6290;SDS011;3178;48.730;8.990;2022-12-19T09:46:16;28.33;;;16.37;;
6290;SDS011;3178;48.730;8.990;2022-12-19T09:48:56;29.07;;;16.20;;
6290;SDS011;3178;48.730;8.990;2022-12-19T09:51:29;28.57;;;16.10;;
6290;SDS011;3178;48.730;8.990;2022-12-19T09:56:32;27.07;;;16.00;;
6290;SDS011;3178;48.730;8.990;2022-12-19T10:01:49;27.90;;;14.90;;
6290;SDS011;3178;48.730;8.990;2022-12-19T10:04:23;26.10;;;13.87;;
6290;SDS011;3178;48.730;8.990;2022-12-19T10:06:51;32.30;;;14.73;;
6290;SDS011;3178;48.730;8.990;2022-12-19T10:09:18;31.23;;;14.30;;
6290;SDS011;3178;48.730;8.990;2022-12-19T10:12:02;27.87;;;14.83;;
6290;SDS011;3178;48.730;8.990;2022-12-19T10:14:41;29.63;;;14.77;;
6290;SDS011;3178;48.730;8.990;2022-12-19T10:17:18;28.50;;;15.27;;
6290;SDS011;3178;48.730;8.990;2022-12-19T10:22:48;25.07;;;14.60;;
6290;SDS011;3178;48.730;8.990;2022-12-19T10:25:26;25.13;;;14.77;;
6290;SDS011;3178;48.730;8.990;2022-12-19T10:28:08;27.90;;;13.93;;
6290;SDS011;3178;48.730;8.990;2022-12-19T10:30:44;28.03;;;15.17;;
6290;SDS011;3178;48.730;8.990;2022-12-19T10:33:25;23.30;;;14.33;;
6290;SDS011;3178;48.730;8.990;2022-12-19T10:35:58;24.10;;;13.73;;
6290;SDS011;3178;48.730;8.990;2022-12-19T10:38:36;32.33;;;15.10;;
6290;SDS011;3178;48.730;8.990;2022-12-19T10:41:35;25.17;;;13.07;;
6290;SDS011;3178;48.730;8.990;2022-12-19T10:44:05;24.77;;;14.37;;
6290;SDS011;3178;48.730;8.990;2022-12-19T10:46:43;29.70;;;12.40;;
6290;SDS011;3178;48.730;8.990;2022-12-19T10:49:14;18.27;;;11.90;;
6290;SDS011;3178;48.730;8.990;2022-12-19T10:51:59;22.80;;;14.17;;
6290;SDS011;3178;48.730;8.990;2022-12-19T10:59:59;21.13;;;12.17;;
6290;SDS011;3178;48.730;8.990;2022-12-19T11:05:20;26.90;;;13.20;;
6290;SDS011;3178;48.730;8.990;2022-12-19T11:13:17;20.27;;;11.50;;
6290;SDS011;3178;48.730;8.990;2022-12-19T11:15:54;20.33;;;12.07;;
6290;SDS011;3178;48.730;8.990;2022-12-19T11:18:22;18.27;;;11.57;;
6290;SDS011;3178;48.730;8.990;2022-12-19T11:20:56;18.60;;;11.37;;
6290;SDS011;3178;48.730;8.990;2022-12-19T11:23:23;16.37;;;11.03;;
6290;SDS011;3178;48.730;8.990;2022-12-19T11:25:57;22.00;;;10.43;;
6290;SDS011;3178;48.730;8.990;2022-12-19T11:28:33;22.37;;;13.07;;
6290;SDS011;3178;48.730;8.990;2022-12-19T11:31:01;16.70;;;9.90;;
6290;SDS011;3178;48.730;8.990;2022-12-19T11:33:30;21.63;;;10.90;;
6290;SDS011;3178;48.730;8.990;2022-12-19T11:35:57;17.10;;;11.27;;
6290;SDS011;3178;48.730;8.990;2022-12-19T11:41:03;21.20;;;12.10;;
6290;SDS011;3178;48.730;8.990;2022-12-19T11:43:40;22.47;;;12.90;;
6290;SDS011;3178;48.730;8.990;2022-12-19T11:49:18;21.23;;;12.50;;
6290;SDS011;3178;48.730;8.990;2022-12-19T11:51:55;18.53;;;11.23;;
6290;SDS011;3178;48.730;8.990;2022-12-19T11:57:17;21.53;;;12.00;;
6290;SDS011;3178;48.730;8.990;2022-12-19T11:59:42;20.87;;;12.60;;
6290;SDS011;3178;48.730;8.990;2022-12-19T12:07:34;20.17;;;12.13;;
6290;SDS011;3178;48.730;8.990;2022-12-19T12:10:18;25.23;;;15.37;;
6290;SDS011;3178;48.730;8.990;2022-12-19T12:13:02;25.03;;;14.50;;
6290;SDS011;3178;48.730;8.990;2022-12-19T12:15:45;27.33;;;14.37;;
6290;SDS011;3178;48.730;8.990;2022-12-19T12:26:28;25.33;;;16.10;;
6290;SDS011;3178;48.730;8.990;2022-12-19T12:34:54;29.07;;;17.30;;
6290;SDS011;3178;48.730;8.990;2022-12-19T12:43:01;30.27;;;16.70;;
6290;SDS011;3178;48.730;8.990;2022-12-19T12:45:44;29.73;;;16.30;;
6290;SDS011;3178;48.730;8.990;2022-12-19T12:48:44;31.17;;;16.37;;
6290;SDS011;3178;48.730;8.990;2022-12-19T12:51:06;33.10;;;17.67;;
6290;SDS011;3178;48.730;8.990;2022-12-19T12:53:34;23.00;;;16.27;;
6290;SDS011;3178;48.730;8.990;2022-12-19T12:56:05;27.07;;;16.50;;
6290;SDS011;3178;48.730;8.990;2022-12-19T13:04:06;25.20;;;14.50;;
6290;SDS011;3178;48.730;8.990;2022-12-19T13:09:20;20.63;;;13.17;;
6290;SDS011;3178;48.730;8.990;2022-12-19T13:12:15;28.77;;;16.10;;
6290;SDS011;3178;48.730;8.990;2022-12-19T13:22:38;24.20;;;14.70;;
6290;SDS011;3178;48.730;8.990;2022-12-19T13:27:50;31.33;;;14.10;;
6290;SDS011;3178;48.730;8.990;2022-12-19T13:30:20;27.10;;;15.03;;
6290;SDS011;3178;48.730;8.990;2022-12-19T13:37:49;24.63;;;14.80;;
6290;SDS011;3178;48.730;8.990;2022-12-19T13:40:25;24.07;;;14.70;;
6290;SDS011;3178;48.730;8.990;2022-12-19T13:43:01;28.90;;;15.77;;
6290;SDS011;3178;48.730;8.990;2022-12-19T13:45:50;25.00;;;14.80;;
6290;SDS011;3178;48.730;8.990;2022-12-19T13:48:23;26.23;;;15.03;;
6290;SDS011;3178;48.730;8.990;2022-12-19T13:50:54;25.50;;;15.80;;
6290;SDS011;3178;48.730;8.990;2022-12-19T13:53:22;25.63;;;15.60;;
6290;SDS011;3178;48.730;8.990;2022-12-19T13:55:52;25.90;;;13.23;;
6290;SDS011;3178;48.730;8.990;2022-12-19T14:01:30;31.43;;;14.77;;
6290;SDS011;3178;48.730;8.990;2022-12-19T14:04:03;26.83;;;13.87;;
6290;SDS011;3178;48.730;8.990;2022-12-19T14:06:46;22.57;;;13.83;;
6290;SDS011;3178;48.730;8.990;2022-12-19T14:09:22;21.80;;;13.83;;
6290;SDS011;3178;48.730;8.990;2022-12-19T14:11:58;24.33;;;13.70;;
6290;SDS011;3178;48.730;8.990;2022-12-19T14:14:26;22.60;;;13.23;;
6290;SDS011;3178;48.730;8.990;2022-12-19T14:17:15;22.00;;;13.97;;
6290;SDS011;3178;48.730;8.990;2022-12-19T14:19:46;24.13;;;13.43;;
6290;SDS011;3178;48.730;8.990;2022-12-19T14:24:52;27.40;;;14.90;;
6290;SDS011;3178;48.730;8.990;2022-12-19T14:27:19;27.03;;;13.90;;
6290;SDS011;3178;48.730;8.990;2022-12-19T14:30:07;23.63;;;12.80;;
6290;SDS011;3178;48.730;8.990;2022-12-19T14:32:43;23.23;;;13.77;;
6290;SDS011;3178;48.730;8.990;2022-12-19T14:35:11;21.70;;;13.70;;
6290;SDS011;3178;48.730;8.990;2022-12-19T14:37:42;20.07;;;13.00;;
6290;SDS011;3178;48.730;8.990;2022-12-19T14:40:21;20.93;;;12.57;;
6290;SDS011;3178;48.730;8.990;2022-12-19T14:42:49;23.70;;;13.10;;
6290;SDS011;3178;48.730;8.990;2022-12-19T14:45:39;25.70;;;15.00;;
6290;SDS011;3178;48.730;8.990;2022-12-19T14:51:01;30.17;;;14.87;;
6290;SDS011;3178;48.730;8.990;2022-12-19T14:53:28;27.20;;;14.50;;
6290;SDS011;3178;48.730;8.990;2022-12-19T14:56:01;26.50;;;14.63;;
6290;SDS011;3178;48.730;8.990;2022-12-19T14:58:34;23.87;;;14.00;;
6290;SDS011;3178;48.730;8.990;2022-12-19T15:01:03;35.03;;;15.00;;
6290;SDS011;3178;48.730;8.990;2022-12-19T15:03:32;27.70;;;15.43;;
6290;SDS011;3178;48.730;8.990;2022-12-19T15:06:04;26.10;;;14.80;;
6290;SDS011;3178;48.730;8.990;2022-12-19T15:08:33;20.70;;;13.90;;
6290;SDS011;3178;48.730;8.990;2022-12-19T15:11:01;27.00;;;14.80;;
6290;SDS011;3178;48.730;8.990;2022-12-19T15:13:51;25.50;;;14.93;;
6290;SDS011;3178;48.730;8.990;2022-12-19T15:16:28;25.53;;;13.80;;
6290;SDS011;3178;48.730;8.990;2022-12-19T15:18:56;23.50;;;13.97;;
6290;SDS011;3178;48.730;8.990;2022-12-19T15:21:23;25.90;;;14.47;;
6290;SDS011;3178;48.730;8.990;2022-12-19T15:23:49;28.13;;;17.37;;
6290;SDS011;3178;48.730;8.990;2022-12-19T15:26:17;24.40;;;14.40;;
6290;SDS011;3178;48.730;8.990;2022-12-19T15:28:54;22.67;;;13.40;;
6290;SDS011;3178;48.730;8.990;2022-12-19T15:33:50;24.73;;;13.27;;
6290;SDS011;3178;48.730;8.990;2022-12-19T15:36:16;23.87;;;13.77;;
6290;SDS011;3178;48.730;8.990;2022-12-19T15:38:41;19.83;;;12.67;;
6290;SDS011;3178;48.730;8.990;2022-12-19T15:41:08;36.47;;;14.20;;
6290;SDS011;3178;48.730;8.990;2022-12-19T15:43:37;20.63;;;12.73;;
6290;SDS011;3178;48.730;8.990;2022-12-19T15:46:03;22.13;;;14.17;;
6290;SDS011;3178;48.730;8.990;2022-12-19T15:48:28;28.43;;;15.73;;
6290;SDS011;3178;48.730;8.990;2022-12-19T15:50:54;26.87;;;14.27;;
6290;SDS011;3178;48.730;8.990;2022-12-19T15:53:21;27.20;;;14.93;;
6290;SDS011;3178;48.730;8.990;2022-12-19T15:55:53;23.33;;;15.20;;
6290;SDS011;3178;48.730;8.990;2022-12-19T15:58:22;24.73;;;14.67;;
6290;SDS011;3178;48.730;8.990;2022-12-19T16:00:53;25.23;;;14.73;;
6290;SDS011;3178;48.730;8.990;2022-12-19T16:03:22;28.03;;;15.17;;
6290;SDS011;3178;48.730;8.990;2022-12-19T16:05:50;28.60;;;16.43;;
6290;SDS011;3178;48.730;8.990;2022-12-19T16:08:17;25.40;;;14.00;;
6290;SDS011;3178;48.730;8.990;2022-12-19T16:10:45;24.60;;;15.17;;
6290;SDS011;3178;48.730;8.990;2022-12-19T16:13:19;27.03;;;14.50;;
6290;SDS011;3178;48.730;8.990;2022-12-19T16:15:48;23.83;;;14.57;;
6290;SDS011;3178;48.730;8.990;2022-12-19T16:18:14;22.33;;;12.03;;
6290;SDS011;3178;48.730;8.990;2022-12-19T16:20:40;25.00;;;15.00;;
6290;SDS011;3178;48.730;8.990;2022-12-19T16:23:07;25.37;;;15.03;;
6290;SDS011;3178;48.730;8.990;2022-12-19T16:25:40;27.00;;;16.50;;
6290;SDS011;3178;48.730;8.990;2022-12-19T16:28:12;26.60;;;14.57;;
6290;SDS011;3178;48.730;8.990;2022-12-19T16:30:40;25.37;;;15.13;;
6290;SDS011;3178;48.730;8.990;2022-12-19T16:33:18;27.30;;;15.60;;
6290;SDS011;3178;48.730;8.990;2022-12-19T16:35:46;27.10;;;13.93;;
6290;SDS011;3178;48.730;8.990;2022-12-19T16:38:12;26.50;;;16.67;;
6290;SDS011;3178;48.730;8.990;2022-12-19T16:40:38;32.43;;;16.10;;
6290;SDS011;3178;48.730;8.990;2022-12-19T16:43:09;25.87;;;15.10;;
6290;SDS011;3178;48.730;8.990;2022-12-19T16:45:39;31.70;;;17.60;;
6290;SDS011;3178;48.730;8.990;2022-12-19T16:48:13;30.73;;;19.43;;
6290;SDS011;3178;48.730;8.990;2022-12-19T16:50:45;32.83;;;18.00;;
6290;SDS011;3178;48.730;8.990;2022-12-19T16:53:11;38.40;;;20.27;;
6290;SDS011;3178;48.730;8.990;2022-12-19T16:55:37;29.80;;;15.80;;
6290;SDS011;3178;48.730;8.990;2022-12-19T16:58:03;29.37;;;16.83;;
6290;SDS011;3178;48.730;8.990;2022-12-19T17:00:28;34.87;;;18.50;;
6290;SDS011;3178;48.730;8.990;2022-12-19T17:02:56;30.80;;;16.90;;
6290;SDS011;3178;48.730;8.990;2022-12-19T17:05:28;28.37;;;16.10;;
6290;SDS011;3178;48.730;8.990;2022-12-19T17:07:55;33.00;;;15.67;;
6290;SDS011;3178;48.730;8.990;2022-12-19T17:10:21;26.80;;;15.50;;
6290;SDS011;3178;48.730;8.990;2022-12-19T17:12:51;33.93;;;18.17;;
6290;SDS011;3178;48.730;8.990;2022-12-19T17:15:20;31.73;;;17.87;;
6290;SDS011;3178;48.730;8.990;2022-12-19T17:17:47;35.10;;;19.33;;
6290;SDS011;3178;48.730;8.990;2022-12-19T17:20:20;33.60;;;19.40;;
6290;SDS011;3178;48.730;8.990;2022-12-19T17:22:49;39.50;;;20.00;;